sensor_id;sensor_type;location;lat;lon;timestamp;P1;durP1;ratioP1;P2;durP2;ratioP2
25127;SDS011;13107;51.304;6.866;2022-10-31T00:01:18;17.85;;;6.87;;
25127;SDS011;13107;51.304;6.866;2022-10-31T00:05:20;15.05;;;7.05;;
25127;SDS011;13107;51.304;6.866;2022-10-31T00:09:21;13.30;;;6.97;;
25127;SDS011;13107;51.304;6.866;2022-10-31T00:13:23;16.92;;;6.55;;
25127;SDS011;13107;51.304;6.866;2022-10-31T00:17:25;18.30;;;7.00;;
25127;SDS011;13107;51.304;6.866;2022-10-31T00:21:27;16.00;;;6.45;;
25127;SDS011;13107;51.304;6.866;2022-10-31T00:25:32;12.00;;;6.45;;
25127;SDS011;13107;51.304;6.866;2022-10-31T00:29:36;13.93;;;6.25;;
25127;SDS011;13107;51.304;6.866;2022-10-31T00:33:38;17.12;;;6.20;;
25127;SDS011;13107;51.304;6.866;2022-10-31T00:37:40;11.07;;;6.40;;
25127;SDS011;13107;51.304;6.866;2022-10-31T00:41:42;17.00;;;6.60;;
25127;SDS011;13107;51.304;6.866;2022-10-31T00:45:44;17.12;;;6.62;;
25127;SDS011;13107;51.304;6.866;2022-10-31T00:49:45;14.82;;;6.68;;
25127;SDS011;13107;51.304;6.866;2022-10-31T00:53:47;20.00;;;6.72;;
25127;SDS011;13107;51.304;6.866;2022-10-31T00:57:48;10.05;;;6.30;;
25127;SDS011;13107;51.304;6.866;2022-10-31T01:01:50;16.70;;;7.22;;
25127;SDS011;13107;51.304;6.866;2022-10-31T01:06:09;11.98;;;6.70;;
25127;SDS011;13107;51.304;6.866;2022-10-31T01:10:12;18.55;;;7.00;;
25127;SDS011;13107;51.304;6.866;2022-10-31T01:14:14;15.60;;;6.80;;
25127;SDS011;13107;51.304;6.866;2022-10-31T01:18:16;14.40;;;6.80;;
25127;SDS011;13107;51.304;6.866;2022-10-31T01:22:17;15.20;;;7.30;;
25127;SDS011;13107;51.304;6.866;2022-10-31T01:26:20;18.23;;;7.35;;
25127;SDS011;13107;51.304;6.866;2022-10-31T01:30:24;15.07;;;7.10;;
25127;SDS011;13107;51.304;6.866;2022-10-31T01:34:25;14.10;;;7.30;;
25127;SDS011;13107;51.304;6.866;2022-10-31T01:38:27;16.20;;;7.50;;
25127;SDS011;13107;51.304;6.866;2022-10-31T01:42:29;12.60;;;5.82;;
25127;SDS011;13107;51.304;6.866;2022-10-31T01:46:32;14.00;;;6.60;;
25127;SDS011;13107;51.304;6.866;2022-10-31T01:50:37;14.35;;;7.35;;
25127;SDS011;13107;51.304;6.866;2022-10-31T01:54:41;16.55;;;6.82;;
25127;SDS011;13107;51.304;6.866;2022-10-31T01:58:46;15.50;;;7.20;;
25127;SDS011;13107;51.304;6.866;2022-10-31T02:02:48;16.27;;;6.97;;
25127;SDS011;13107;51.304;6.866;2022-10-31T02:06:53;10.25;;;6.30;;
25127;SDS011;13107;51.304;6.866;2022-10-31T02:11:00;12.75;;;6.65;;
25127;SDS011;13107;51.304;6.866;2022-10-31T02:15:03;13.40;;;6.70;;
25127;SDS011;13107;51.304;6.866;2022-10-31T02:19:05;15.70;;;7.12;;
25127;SDS011;13107;51.304;6.866;2022-10-31T02:31:50;17.58;;;7.50;;
25127;SDS011;13107;51.304;6.866;2022-10-31T02:36:05;17.00;;;6.90;;
25127;SDS011;13107;51.304;6.866;2022-10-31T02:40:33;16.23;;;6.35;;
25127;SDS011;13107;51.304;6.866;2022-10-31T02:44:41;17.83;;;7.12;;
25127;SDS011;13107;51.304;6.866;2022-10-31T02:48:50;12.05;;;6.60;;
25127;SDS011;13107;51.304;6.866;2022-10-31T02:52:58;15.25;;;6.90;;
25127;SDS011;13107;51.304;6.866;2022-10-31T02:57:02;15.80;;;6.90;;
25127;SDS011;13107;51.304;6.866;2022-10-31T03:13:38;14.10;;;7.60;;
25127;SDS011;13107;51.304;6.866;2022-10-31T03:17:47;16.75;;;8.05;;
25127;SDS011;13107;51.304;6.866;2022-10-31T03:26:26;19.40;;;8.48;;
25127;SDS011;13107;51.304;6.866;2022-10-31T03:30:29;13.98;;;8.05;;
25127;SDS011;13107;51.304;6.866;2022-10-31T03:34:37;15.40;;;7.50;;
25127;SDS011;13107;51.304;6.866;2022-10-31T03:38:41;19.80;;;7.60;;
25127;SDS011;13107;51.304;6.866;2022-10-31T03:42:46;14.35;;;7.40;;
25127;SDS011;13107;51.304;6.866;2022-10-31T03:46:53;14.75;;;8.02;;
25127;SDS011;13107;51.304;6.866;2022-10-31T03:50:58;14.70;;;7.70;;
25127;SDS011;13107;51.304;6.866;2022-10-31T03:55:18;17.00;;;8.82;;
25127;SDS011;13107;51.304;6.866;2022-10-31T03:59:35;14.13;;;7.65;;
25127;SDS011;13107;51.304;6.866;2022-10-31T04:03:40;15.27;;;7.65;;
25127;SDS011;13107;51.304;6.866;2022-10-31T04:07:44;15.73;;;8.05;;
25127;SDS011;13107;51.304;6.866;2022-10-31T04:11:49;17.15;;;8.13;;
25127;SDS011;13107;51.304;6.866;2022-10-31T04:15:54;15.85;;;7.78;;
25127;SDS011;13107;51.304;6.866;2022-10-31T04:19:58;17.35;;;8.23;;
25127;SDS011;13107;51.304;6.866;2022-10-31T04:24:01;16.45;;;8.30;;
25127;SDS011;13107;51.304;6.866;2022-10-31T04:28:03;16.02;;;7.62;;
25127;SDS011;13107;51.304;6.866;2022-10-31T04:32:05;15.95;;;8.98;;
25127;SDS011;13107;51.304;6.866;2022-10-31T04:36:07;16.45;;;8.43;;
25127;SDS011;13107;51.304;6.866;2022-10-31T04:40:09;15.15;;;7.18;;
25127;SDS011;13107;51.304;6.866;2022-10-31T04:44:11;14.50;;;7.30;;
25127;SDS011;13107;51.304;6.866;2022-10-31T04:48:13;15.50;;;9.20;;
25127;SDS011;13107;51.304;6.866;2022-10-31T04:52:14;17.25;;;8.85;;
25127;SDS011;13107;51.304;6.866;2022-10-31T04:56:16;18.15;;;8.63;;
25127;SDS011;13107;51.304;6.866;2022-10-31T05:00:18;21.83;;;8.65;;
25127;SDS011;13107;51.304;6.866;2022-10-31T05:04:21;19.52;;;8.93;;
25127;SDS011;13107;51.304;6.866;2022-10-31T05:08:23;17.05;;;9.38;;
25127;SDS011;13107;51.304;6.866;2022-10-31T05:12:24;18.67;;;9.43;;
25127;SDS011;13107;51.304;6.866;2022-10-31T05:16:26;15.27;;;8.55;;
25127;SDS011;13107;51.304;6.866;2022-10-31T05:20:29;19.00;;;8.70;;
25127;SDS011;13107;51.304;6.866;2022-10-31T05:24:31;18.30;;;8.80;;
25127;SDS011;13107;51.304;6.866;2022-10-31T05:28:33;18.90;;;9.32;;
25127;SDS011;13107;51.304;6.866;2022-10-31T05:32:41;22.48;;;9.85;;
25127;SDS011;13107;51.304;6.866;2022-10-31T05:36:44;16.75;;;9.57;;
25127;SDS011;13107;51.304;6.866;2022-10-31T05:40:46;14.25;;;9.02;;
25127;SDS011;13107;51.304;6.866;2022-10-31T05:44:48;17.60;;;8.23;;
25127;SDS011;13107;51.304;6.866;2022-10-31T05:48:49;17.30;;;9.38;;
25127;SDS011;13107;51.304;6.866;2022-10-31T05:52:58;18.98;;;8.20;;
25127;SDS011;13107;51.304;6.866;2022-10-31T05:57:01;15.00;;;7.82;;
25127;SDS011;13107;51.304;6.866;2022-10-31T06:01:03;16.17;;;8.55;;
25127;SDS011;13107;51.304;6.866;2022-10-31T06:05:05;22.42;;;11.82;;
25127;SDS011;13107;51.304;6.866;2022-10-31T06:09:07;19.83;;;9.63;;
25127;SDS011;13107;51.304;6.866;2022-10-31T06:13:08;21.30;;;10.32;;
25127;SDS011;13107;51.304;6.866;2022-10-31T06:17:10;18.37;;;10.13;;
25127;SDS011;13107;51.304;6.866;2022-10-31T06:21:12;21.60;;;10.50;;
25127;SDS011;13107;51.304;6.866;2022-10-31T06:25:19;71.07;;;41.53;;
25127;SDS011;13107;51.304;6.866;2022-10-31T06:29:20;26.20;;;13.82;;
25127;SDS011;13107;51.304;6.866;2022-10-31T06:33:22;19.50;;;10.60;;
25127;SDS011;13107;51.304;6.866;2022-10-31T06:37:24;19.52;;;10.30;;
25127;SDS011;13107;51.304;6.866;2022-10-31T06:41:25;17.70;;;9.30;;
25127;SDS011;13107;51.304;6.866;2022-10-31T06:45:27;23.77;;;10.57;;
25127;SDS011;13107;51.304;6.866;2022-10-31T06:49:29;20.25;;;10.80;;
25127;SDS011;13107;51.304;6.866;2022-10-31T06:53:31;32.15;;;19.52;;
25127;SDS011;13107;51.304;6.866;2022-10-31T06:57:32;19.12;;;10.82;;
25127;SDS011;13107;51.304;6.866;2022-10-31T07:01:34;20.83;;;10.25;;
25127;SDS011;13107;51.304;6.866;2022-10-31T07:05:36;21.08;;;10.23;;
25127;SDS011;13107;51.304;6.866;2022-10-31T07:09:38;21.77;;;10.45;;
25127;SDS011;13107;51.304;6.866;2022-10-31T07:13:40;16.75;;;10.27;;
25127;SDS011;13107;51.304;6.866;2022-10-31T07:17:42;20.00;;;10.38;;
25127;SDS011;13107;51.304;6.866;2022-10-31T07:21:43;27.00;;;11.00;;
25127;SDS011;13107;51.304;6.866;2022-10-31T07:25:45;26.05;;;11.27;;
25127;SDS011;13107;51.304;6.866;2022-10-31T07:29:46;25.77;;;13.18;;
25127;SDS011;13107;51.304;6.866;2022-10-31T07:33:48;26.48;;;14.25;;
25127;SDS011;13107;51.304;6.866;2022-10-31T07:37:51;18.65;;;10.07;;
25127;SDS011;13107;51.304;6.866;2022-10-31T07:41:53;17.15;;;9.77;;
25127;SDS011;13107;51.304;6.866;2022-10-31T07:45:54;21.50;;;10.07;;
25127;SDS011;13107;51.304;6.866;2022-10-31T07:49:56;22.00;;;10.82;;
25127;SDS011;13107;51.304;6.866;2022-10-31T07:53:58;22.98;;;11.60;;
25127;SDS011;13107;51.304;6.866;2022-10-31T07:58:03;18.17;;;11.02;;
25127;SDS011;13107;51.304;6.866;2022-10-31T08:02:09;17.37;;;10.40;;
25127;SDS011;13107;51.304;6.866;2022-10-31T08:06:11;24.55;;;11.20;;
25127;SDS011;13107;51.304;6.866;2022-10-31T08:10:13;23.02;;;12.88;;
25127;SDS011;13107;51.304;6.866;2022-10-31T08:14:14;26.98;;;13.10;;
25127;SDS011;13107;51.304;6.866;2022-10-31T08:18:16;25.12;;;13.18;;
25127;SDS011;13107;51.304;6.866;2022-10-31T08:22:18;20.17;;;12.00;;
25127;SDS011;13107;51.304;6.866;2022-10-31T08:26:19;24.48;;;12.77;;
25127;SDS011;13107;51.304;6.866;2022-10-31T08:30:23;25.50;;;13.20;;
25127;SDS011;13107;51.304;6.866;2022-10-31T08:34:26;27.27;;;14.02;;
25127;SDS011;13107;51.304;6.866;2022-10-31T08:38:28;36.35;;;23.25;;
25127;SDS011;13107;51.304;6.866;2022-10-31T08:42:29;59.05;;;37.03;;
25127;SDS011;13107;51.304;6.866;2022-10-31T08:46:31;32.40;;;18.75;;
25127;SDS011;13107;51.304;6.866;2022-10-31T08:50:34;22.00;;;13.45;;
25127;SDS011;13107;51.304;6.866;2022-10-31T08:54:36;28.10;;;14.63;;
25127;SDS011;13107;51.304;6.866;2022-10-31T08:58:38;19.35;;;11.93;;
25127;SDS011;13107;51.304;6.866;2022-10-31T09:02:40;27.62;;;15.73;;
25127;SDS011;13107;51.304;6.866;2022-10-31T09:06:42;25.85;;;14.75;;
25127;SDS011;13107;51.304;6.866;2022-10-31T09:11:04;28.10;;;14.65;;
25127;SDS011;13107;51.304;6.866;2022-10-31T09:15:07;26.30;;;14.40;;
25127;SDS011;13107;51.304;6.866;2022-10-31T09:19:10;33.35;;;15.77;;
25127;SDS011;13107;51.304;6.866;2022-10-31T09:23:13;21.77;;;14.30;;
25127;SDS011;13107;51.304;6.866;2022-10-31T09:27:20;28.42;;;14.27;;
25127;SDS011;13107;51.304;6.866;2022-10-31T09:31:21;28.65;;;15.10;;
25127;SDS011;13107;51.304;6.866;2022-10-31T09:35:23;26.30;;;15.60;;
25127;SDS011;13107;51.304;6.866;2022-10-31T09:39:26;28.45;;;16.00;;
25127;SDS011;13107;51.304;6.866;2022-10-31T09:52:19;29.37;;;15.07;;
25127;SDS011;13107;51.304;6.866;2022-10-31T09:56:25;33.45;;;18.48;;
25127;SDS011;13107;51.304;6.866;2022-10-31T10:00:28;34.35;;;18.85;;
25127;SDS011;13107;51.304;6.866;2022-10-31T10:08:45;33.67;;;16.87;;
25127;SDS011;13107;51.304;6.866;2022-10-31T10:12:59;28.23;;;17.58;;
25127;SDS011;13107;51.304;6.866;2022-10-31T10:17:44;30.02;;;16.42;;
25127;SDS011;13107;51.304;6.866;2022-10-31T10:22:36;34.85;;;18.10;;
25127;SDS011;13107;51.304;6.866;2022-10-31T10:26:38;27.70;;;17.27;;
25127;SDS011;13107;51.304;6.866;2022-10-31T10:35:34;23.62;;;14.45;;
25127;SDS011;13107;51.304;6.866;2022-10-31T10:43:42;23.52;;;13.02;;
25127;SDS011;13107;51.304;6.866;2022-10-31T10:47:44;27.62;;;14.15;;
25127;SDS011;13107;51.304;6.866;2022-10-31T10:51:57;27.92;;;13.10;;
25127;SDS011;13107;51.304;6.866;2022-10-31T10:56:30;29.45;;;14.60;;
25127;SDS011;13107;51.304;6.866;2022-10-31T11:00:43;29.23;;;14.38;;
25127;SDS011;13107;51.304;6.866;2022-10-31T11:04:51;31.67;;;13.90;;
25127;SDS011;13107;51.304;6.866;2022-10-31T11:08:55;24.60;;;12.73;;
25127;SDS011;13107;51.304;6.866;2022-10-31T11:13:02;22.35;;;12.52;;
25127;SDS011;13107;51.304;6.866;2022-10-31T11:17:07;25.77;;;11.20;;
25127;SDS011;13107;51.304;6.866;2022-10-31T11:21:21;28.05;;;12.23;;
25127;SDS011;13107;51.304;6.866;2022-10-31T11:25:26;23.85;;;10.90;;
25127;SDS011;13107;51.304;6.866;2022-10-31T11:29:28;17.30;;;9.43;;
25127;SDS011;13107;51.304;6.866;2022-10-31T11:33:49;16.40;;;7.87;;
25127;SDS011;13107;51.304;6.866;2022-10-31T11:38:01;16.20;;;8.07;;
25127;SDS011;13107;51.304;6.866;2022-10-31T11:42:06;14.85;;;6.82;;
25127;SDS011;13107;51.304;6.866;2022-10-31T11:46:10;15.63;;;6.68;;
25127;SDS011;13107;51.304;6.866;2022-10-31T11:50:20;14.15;;;5.90;;
25127;SDS011;13107;51.304;6.866;2022-10-31T11:54:28;15.07;;;6.45;;
25127;SDS011;13107;51.304;6.866;2022-10-31T11:58:33;15.00;;;6.97;;
25127;SDS011;13107;51.304;6.866;2022-10-31T12:02:35;15.90;;;6.97;;
25127;SDS011;13107;51.304;6.866;2022-10-31T12:06:37;12.48;;;5.97;;
25127;SDS011;13107;51.304;6.866;2022-10-31T12:19:29;16.62;;;5.10;;
25127;SDS011;13107;51.304;6.866;2022-10-31T12:24:00;11.40;;;4.75;;
25127;SDS011;13107;51.304;6.866;2022-10-31T12:28:41;19.48;;;6.78;;
25127;SDS011;13107;51.304;6.866;2022-10-31T12:45:57;11.40;;;4.15;;
25127;SDS011;13107;51.304;6.866;2022-10-31T12:54:28;14.93;;;3.67;;
25127;SDS011;13107;51.304;6.866;2022-10-31T12:58:33;10.30;;;4.60;;
25127;SDS011;13107;51.304;6.866;2022-10-31T13:02:40;15.85;;;4.07;;
25127;SDS011;13107;51.304;6.866;2022-10-31T13:06:58;12.25;;;3.60;;
25127;SDS011;13107;51.304;6.866;2022-10-31T13:11:10;11.00;;;4.03;;
25127;SDS011;13107;51.304;6.866;2022-10-31T13:15:25;11.85;;;4.03;;
25127;SDS011;13107;51.304;6.866;2022-10-31T13:19:30;14.35;;;4.37;;
25127;SDS011;13107;51.304;6.866;2022-10-31T13:23:39;12.93;;;3.83;;
25127;SDS011;13107;51.304;6.866;2022-10-31T13:32:03;10.25;;;3.92;;
25127;SDS011;13107;51.304;6.866;2022-10-31T13:36:13;14.00;;;3.58;;
25127;SDS011;13107;51.304;6.866;2022-10-31T13:44:30;12.68;;;3.87;;
25127;SDS011;13107;51.304;6.866;2022-10-31T13:48:39;11.05;;;4.37;;
25127;SDS011;13107;51.304;6.866;2022-10-31T13:52:43;13.30;;;4.28;;
25127;SDS011;13107;51.304;6.866;2022-10-31T13:56:47;9.27;;;4.05;;
25127;SDS011;13107;51.304;6.866;2022-10-31T14:05:25;15.13;;;3.90;;
25127;SDS011;13107;51.304;6.866;2022-10-31T14:09:37;10.27;;;3.28;;
25127;SDS011;13107;51.304;6.866;2022-10-31T14:13:43;13.07;;;3.58;;
25127;SDS011;13107;51.304;6.866;2022-10-31T14:17:51;9.93;;;3.60;;
25127;SDS011;13107;51.304;6.866;2022-10-31T14:21:58;8.68;;;3.53;;
25127;SDS011;13107;51.304;6.866;2022-10-31T14:30:29;10.60;;;3.47;;
25127;SDS011;13107;51.304;6.866;2022-10-31T14:34:41;10.25;;;3.80;;
25127;SDS011;13107;51.304;6.866;2022-10-31T14:47:43;15.52;;;6.30;;
25127;SDS011;13107;51.304;6.866;2022-10-31T14:51:57;15.40;;;5.07;;
25127;SDS011;13107;51.304;6.866;2022-10-31T14:56:00;13.77;;;4.60;;
25127;SDS011;13107;51.304;6.866;2022-10-31T15:04:21;15.35;;;5.05;;
25127;SDS011;13107;51.304;6.866;2022-10-31T15:08:37;17.10;;;5.37;;
25127;SDS011;13107;51.304;6.866;2022-10-31T15:12:41;11.80;;;3.83;;
25127;SDS011;13107;51.304;6.866;2022-10-31T15:16:42;9.65;;;4.10;;
25127;SDS011;13107;51.304;6.866;2022-10-31T15:20:45;11.35;;;4.85;;
25127;SDS011;13107;51.304;6.866;2022-10-31T15:24:47;16.92;;;6.10;;
25127;SDS011;13107;51.304;6.866;2022-10-31T15:29:10;13.73;;;5.40;;
25127;SDS011;13107;51.304;6.866;2022-10-31T15:33:21;11.93;;;4.53;;
25127;SDS011;13107;51.304;6.866;2022-10-31T15:37:27;13.65;;;4.05;;
25127;SDS011;13107;51.304;6.866;2022-10-31T15:45:34;10.10;;;3.20;;
25127;SDS011;13107;51.304;6.866;2022-10-31T15:49:37;12.15;;;3.35;;
25127;SDS011;13107;51.304;6.866;2022-10-31T15:53:46;9.00;;;2.83;;
25127;SDS011;13107;51.304;6.866;2022-10-31T15:57:51;13.07;;;3.72;;
25127;SDS011;13107;51.304;6.866;2022-10-31T16:02:00;10.35;;;3.03;;
25127;SDS011;13107;51.304;6.866;2022-10-31T16:06:04;12.98;;;3.40;;
25127;SDS011;13107;51.304;6.866;2022-10-31T16:10:21;10.85;;;3.15;;
25127;SDS011;13107;51.304;6.866;2022-10-31T16:14:29;15.60;;;3.87;;
25127;SDS011;13107;51.304;6.866;2022-10-31T16:18:35;11.05;;;2.97;;
25127;SDS011;13107;51.304;6.866;2022-10-31T16:22:38;11.30;;;3.10;;
25127;SDS011;13107;51.304;6.866;2022-10-31T16:26:40;10.05;;;3.30;;
25127;SDS011;13107;51.304;6.866;2022-10-31T16:30:43;11.98;;;3.30;;
25127;SDS011;13107;51.304;6.866;2022-10-31T16:34:56;9.13;;;2.95;;
25127;SDS011;13107;51.304;6.866;2022-10-31T16:39:18;9.18;;;3.03;;
25127;SDS011;13107;51.304;6.866;2022-10-31T16:43:20;10.30;;;2.90;;
25127;SDS011;13107;51.304;6.866;2022-10-31T16:47:23;9.75;;;2.92;;
25127;SDS011;13107;51.304;6.866;2022-10-31T16:51:28;8.80;;;3.03;;
25127;SDS011;13107;51.304;6.866;2022-10-31T16:55:30;11.73;;;3.00;;
25127;SDS011;13107;51.304;6.866;2022-10-31T16:59:35;8.68;;;3.28;;
25127;SDS011;13107;51.304;6.866;2022-10-31T17:03:37;8.85;;;2.65;;
25127;SDS011;13107;51.304;6.866;2022-10-31T17:07:39;12.05;;;3.00;;
25127;SDS011;13107;51.304;6.866;2022-10-31T17:11:44;11.25;;;3.28;;
25127;SDS011;13107;51.304;6.866;2022-10-31T17:15:56;11.82;;;2.85;;
25127;SDS011;13107;51.304;6.866;2022-10-31T17:20:00;9.63;;;2.80;;
25127;SDS011;13107;51.304;6.866;2022-10-31T17:24:01;8.88;;;2.87;;
25127;SDS011;13107;51.304;6.866;2022-10-31T17:28:03;8.38;;;2.97;;
25127;SDS011;13107;51.304;6.866;2022-10-31T17:32:05;9.75;;;3.78;;
25127;SDS011;13107;51.304;6.866;2022-10-31T17:36:07;9.77;;;2.80;;
25127;SDS011;13107;51.304;6.866;2022-10-31T17:40:09;9.57;;;3.17;;
25127;SDS011;13107;51.304;6.866;2022-10-31T17:44:12;6.68;;;2.62;;
25127;SDS011;13107;51.304;6.866;2022-10-31T17:48:14;5.35;;;2.53;;
25127;SDS011;13107;51.304;6.866;2022-10-31T17:52:15;11.05;;;2.83;;
25127;SDS011;13107;51.304;6.866;2022-10-31T17:56:17;11.48;;;3.10;;
25127;SDS011;13107;51.304;6.866;2022-10-31T18:00:19;7.68;;;2.75;;
25127;SDS011;13107;51.304;6.866;2022-10-31T18:04:22;9.38;;;2.97;;
25127;SDS011;13107;51.304;6.866;2022-10-31T18:08:28;8.15;;;2.50;;
25127;SDS011;13107;51.304;6.866;2022-10-31T18:12:31;11.75;;;3.05;;
25127;SDS011;13107;51.304;6.866;2022-10-31T18:16:36;12.55;;;2.53;;
25127;SDS011;13107;51.304;6.866;2022-10-31T18:20:37;7.18;;;2.70;;
25127;SDS011;13107;51.304;6.866;2022-10-31T18:24:40;11.85;;;4.37;;
25127;SDS011;13107;51.304;6.866;2022-10-31T18:28:42;20.15;;;7.50;;
25127;SDS011;13107;51.304;6.866;2022-10-31T18:32:44;20.40;;;10.45;;
25127;SDS011;13107;51.304;6.866;2022-10-31T18:36:49;24.58;;;11.77;;
25127;SDS011;13107;51.304;6.866;2022-10-31T18:40:51;15.18;;;6.68;;
25127;SDS011;13107;51.304;6.866;2022-10-31T18:44:52;10.10;;;3.70;;
25127;SDS011;13107;51.304;6.866;2022-10-31T18:48:54;12.27;;;4.40;;
25127;SDS011;13107;51.304;6.866;2022-10-31T18:52:55;21.87;;;13.25;;
25127;SDS011;13107;51.304;6.866;2022-10-31T18:56:57;16.27;;;8.52;;
25127;SDS011;13107;51.304;6.866;2022-10-31T19:00:59;27.33;;;11.63;;
25127;SDS011;13107;51.304;6.866;2022-10-31T19:05:05;21.40;;;11.37;;
25127;SDS011;13107;51.304;6.866;2022-10-31T19:09:07;12.25;;;4.80;;
25127;SDS011;13107;51.304;6.866;2022-10-31T19:13:09;13.77;;;4.53;;
25127;SDS011;13107;51.304;6.866;2022-10-31T19:17:11;18.70;;;7.87;;
25127;SDS011;13107;51.304;6.866;2022-10-31T19:21:14;11.75;;;5.95;;
25127;SDS011;13107;51.304;6.866;2022-10-31T19:25:17;13.50;;;6.93;;
25127;SDS011;13107;51.304;6.866;2022-10-31T19:29:19;10.20;;;4.53;;
25127;SDS011;13107;51.304;6.866;2022-10-31T19:33:21;15.02;;;7.05;;
25127;SDS011;13107;51.304;6.866;2022-10-31T19:37:22;11.05;;;4.80;;
25127;SDS011;13107;51.304;6.866;2022-10-31T19:41:25;20.45;;;9.02;;
25127;SDS011;13107;51.304;6.866;2022-10-31T19:45:27;13.18;;;6.05;;
25127;SDS011;13107;51.304;6.866;2022-10-31T19:49:29;11.93;;;4.30;;
25127;SDS011;13107;51.304;6.866;2022-10-31T19:53:31;16.20;;;8.50;;
25127;SDS011;13107;51.304;6.866;2022-10-31T19:57:33;16.33;;;6.95;;
25127;SDS011;13107;51.304;6.866;2022-10-31T20:01:56;16.02;;;7.80;;
25127;SDS011;13107;51.304;6.866;2022-10-31T20:06:00;10.00;;;3.62;;
25127;SDS011;13107;51.304;6.866;2022-10-31T20:10:03;9.43;;;2.75;;
25127;SDS011;13107;51.304;6.866;2022-10-31T20:14:06;6.25;;;2.33;;
25127;SDS011;13107;51.304;6.866;2022-10-31T20:18:08;7.43;;;3.17;;
25127;SDS011;13107;51.304;6.866;2022-10-31T20:22:10;8.73;;;2.75;;
25127;SDS011;13107;51.304;6.866;2022-10-31T20:26:13;7.07;;;3.45;;
25127;SDS011;13107;51.304;6.866;2022-10-31T20:30:17;5.85;;;2.95;;
25127;SDS011;13107;51.304;6.866;2022-10-31T20:34:18;9.55;;;3.15;;
25127;SDS011;13107;51.304;6.866;2022-10-31T20:38:20;10.07;;;3.00;;
25127;SDS011;13107;51.304;6.866;2022-10-31T20:42:22;13.82;;;3.05;;
25127;SDS011;13107;51.304;6.866;2022-10-31T20:46:24;8.60;;;2.53;;
25127;SDS011;13107;51.304;6.866;2022-10-31T20:50:27;9.95;;;2.92;;
25127;SDS011;13107;51.304;6.866;2022-10-31T20:54:29;7.65;;;3.17;;
25127;SDS011;13107;51.304;6.866;2022-10-31T20:58:30;6.90;;;3.10;;
25127;SDS011;13107;51.304;6.866;2022-10-31T21:02:33;10.80;;;3.72;;
25127;SDS011;13107;51.304;6.866;2022-10-31T21:06:34;8.90;;;3.03;;
25127;SDS011;13107;51.304;6.866;2022-10-31T21:10:37;7.75;;;2.78;;
25127;SDS011;13107;51.304;6.866;2022-10-31T21:14:39;11.52;;;3.87;;
25127;SDS011;13107;51.304;6.866;2022-10-31T21:18:41;6.87;;;3.05;;
25127;SDS011;13107;51.304;6.866;2022-10-31T21:22:44;5.97;;;2.65;;
25127;SDS011;13107;51.304;6.866;2022-10-31T21:26:47;8.48;;;3.15;;
25127;SDS011;13107;51.304;6.866;2022-10-31T21:30:51;10.13;;;3.33;;
25127;SDS011;13107;51.304;6.866;2022-10-31T21:34:52;11.95;;;3.50;;
25127;SDS011;13107;51.304;6.866;2022-10-31T21:38:54;8.00;;;2.58;;
25127;SDS011;13107;51.304;6.866;2022-10-31T21:42:56;10.05;;;3.20;;
25127;SDS011;13107;51.304;6.866;2022-10-31T21:46:58;7.32;;;3.22;;
25127;SDS011;13107;51.304;6.866;2022-10-31T21:51:03;9.32;;;3.05;;
25127;SDS011;13107;51.304;6.866;2022-10-31T21:55:05;6.47;;;3.28;;
25127;SDS011;13107;51.304;6.866;2022-10-31T21:59:08;12.90;;;3.60;;
25127;SDS011;13107;51.304;6.866;2022-10-31T22:03:10;10.32;;;3.22;;
25127;SDS011;13107;51.304;6.866;2022-10-31T22:07:11;12.95;;;3.15;;
25127;SDS011;13107;51.304;6.866;2022-10-31T22:11:14;10.85;;;2.75;;
25127;SDS011;13107;51.304;6.866;2022-10-31T22:15:17;7.03;;;2.95;;
25127;SDS011;13107;51.304;6.866;2022-10-31T22:19:22;8.10;;;3.28;;
25127;SDS011;13107;51.304;6.866;2022-10-31T22:23:24;10.98;;;3.47;;
25127;SDS011;13107;51.304;6.866;2022-10-31T22:27:26;11.55;;;3.70;;
25127;SDS011;13107;51.304;6.866;2022-10-31T22:31:28;7.00;;;3.45;;
25127;SDS011;13107;51.304;6.866;2022-10-31T22:35:32;6.82;;;2.80;;
25127;SDS011;13107;51.304;6.866;2022-10-31T22:39:34;9.48;;;3.03;;
25127;SDS011;13107;51.304;6.866;2022-10-31T22:43:36;14.45;;;3.22;;
25127;SDS011;13107;51.304;6.866;2022-10-31T22:47:39;6.65;;;3.20;;
25127;SDS011;13107;51.304;6.866;2022-10-31T22:51:46;7.62;;;3.35;;
25127;SDS011;13107;51.304;6.866;2022-10-31T22:55:50;10.00;;;3.22;;
25127;SDS011;13107;51.304;6.866;2022-10-31T22:59:51;6.55;;;3.35;;
25127;SDS011;13107;51.304;6.866;2022-10-31T23:03:53;8.75;;;3.37;;
25127;SDS011;13107;51.304;6.866;2022-10-31T23:07:56;7.78;;;3.10;;
25127;SDS011;13107;51.304;6.866;2022-10-31T23:11:57;9.43;;;3.42;;
25127;SDS011;13107;51.304;6.866;2022-10-31T23:16:19;7.75;;;3.20;;
25127;SDS011;13107;51.304;6.866;2022-10-31T23:20:20;10.52;;;3.10;;
25127;SDS011;13107;51.304;6.866;2022-10-31T23:24:23;12.88;;;3.45;;
25127;SDS011;13107;51.304;6.866;2022-10-31T23:28:25;13.32;;;3.50;;
25127;SDS011;13107;51.304;6.866;2022-10-31T23:36:28;11.82;;;3.62;;
25127;SDS011;13107;51.304;6.866;2022-10-31T23:40:30;7.75;;;3.45;;
25127;SDS011;13107;51.304;6.866;2022-10-31T23:44:32;10.10;;;3.80;;
25127;SDS011;13107;51.304;6.866;2022-10-31T23:48:33;11.43;;;4.30;;
25127;SDS011;13107;51.304;6.866;2022-10-31T23:52:35;8.45;;;3.78;;
25127;SDS011;13107;51.304;6.866;2022-10-31T23:56:37;10.60;;;3.55;;
